Search for airport 
image banner adimage banner adimage banner ad
image banner ad

KDLO - Delano Muni

Located in Delano, United States

ICAO - DLO, IATA -

Data provided by Airmate  

General information

Coordinates: N35°44'44" W119°14'11"
Elevation is 316 feet MSL.
Magnetic variation is 16° East
View others Airports in California

Operational data

Special qualification required
Current time UTC:
Current local time:
Weather
METAR: KDLO 260955Z AUTO 14003KT 10SM CLR 15/10 A2993 RMK AO2 T01450095
View NOTAMs / SUP AIP / TFR affecting this airport [VIEW]
Communications frequencies: [VIEW]

Runways:

RWY identifierQFULength (ft)Width (ft)SurfaceLDA (ft)
14159°565975ASPH
32339°565975ASPH

Airport contact information

Address: Delano United States

Satellite view of KDLO